Chibougamau Airport (YMT/CYMT)

Map

Destinations

Information

Location
Chibougamau, Quebec, Canada
Local Time
13:12 / 1:12 pm
GMT Time
18:12 / 6:12 pm
Gates
Unassigned
No FAA reported delays
METAR CYMT 201800Z AUTO VRB02KT 9SM CLR 19/08 A3014 RMK SLP215 DENSITY ALT 1800FT
TAF TAF CYMT 201738Z 2018/2024 07005KT P6SM SKC RMK FCST BASED ON AUTO OBS. NXT FCST WILL BE ISSUED AT 211145Z